sensor_id;sensor_type;location;lat;lon;timestamp;temperature;humidity
40868;DHT22;26586;50.708;22.412;2023-04-25T00:00:24;20.30;46.10
40868;DHT22;26586;50.708;22.412;2023-04-25T00:03:11;20.30;46.20
40868;DHT22;26586;50.708;22.412;2023-04-25T00:05:37;20.30;46.30
40868;DHT22;26586;50.708;22.412;2023-04-25T00:08:04;20.30;46.20
40868;DHT22;26586;50.708;22.412;2023-04-25T00:10:31;20.30;46.20
40868;DHT22;26586;50.708;22.412;2023-04-25T00:12:57;20.30;46.30
40868;DHT22;26586;50.708;22.412;2023-04-25T00:15:24;20.20;46.30
40868;DHT22;26586;50.708;22.412;2023-04-25T00:17:51;20.20;46.20
40868;DHT22;26586;50.708;22.412;2023-04-25T00:20:18;20.20;46.30
40868;DHT22;26586;50.708;22.412;2023-04-25T00:22:45;20.20;46.40
40868;DHT22;26586;50.708;22.412;2023-04-25T00:25:11;20.20;46.60
40868;DHT22;26586;50.708;22.412;2023-04-25T00:27:37;20.20;46.70
40868;DHT22;26586;50.708;22.412;2023-04-25T00:30:05;20.10;46.60
40868;DHT22;26586;50.708;22.412;2023-04-25T00:32:32;20.10;46.50
40868;DHT22;26586;50.708;22.412;2023-04-25T00:34:58;20.20;46.50
40868;DHT22;26586;50.708;22.412;2023-04-25T00:37:25;20.10;46.60
40868;DHT22;26586;50.708;22.412;2023-04-25T00:39:51;20.10;46.70
40868;DHT22;26586;50.708;22.412;2023-04-25T00:42:19;20.10;46.70
40868;DHT22;26586;50.708;22.412;2023-04-25T00:44:46;20.10;46.90
40868;DHT22;26586;50.708;22.412;2023-04-25T00:47:13;20.10;46.70
40868;DHT22;26586;50.708;22.412;2023-04-25T00:49:40;20.00;46.60
40868;DHT22;26586;50.708;22.412;2023-04-25T00:52:07;20.00;46.60
40868;DHT22;26586;50.708;22.412;2023-04-25T00:54:33;20.00;46.90
40868;DHT22;26586;50.708;22.412;2023-04-25T00:56:59;20.00;47.20
40868;DHT22;26586;50.708;22.412;2023-04-25T00:59:27;20.00;48.20
40868;DHT22;26586;50.708;22.412;2023-04-25T01:01:54;20.00;47.90
40868;DHT22;26586;50.708;22.412;2023-04-25T01:04:20;20.00;48.00
40868;DHT22;26586;50.708;22.412;2023-04-25T01:06:47;20.00;48.20
40868;DHT22;26586;50.708;22.412;2023-04-25T01:09:14;20.00;48.40
40868;DHT22;26586;50.708;22.412;2023-04-25T01:11:40;20.00;48.50
40868;DHT22;26586;50.708;22.412;2023-04-25T01:14:06;20.00;48.70
40868;DHT22;26586;50.708;22.412;2023-04-25T01:16:33;20.00;48.70
40868;DHT22;26586;50.708;22.412;2023-04-25T01:18:59;20.00;48.60
40868;DHT22;26586;50.708;22.412;2023-04-25T01:21:26;19.90;48.50
40868;DHT22;26586;50.708;22.412;2023-04-25T01:23:54;19.90;48.20
40868;DHT22;26586;50.708;22.412;2023-04-25T01:26:20;19.90;48.00
40868;DHT22;26586;50.708;22.412;2023-04-25T01:28:47;19.90;48.00
40868;DHT22;26586;50.708;22.412;2023-04-25T01:31:14;19.90;47.80
40868;DHT22;26586;50.708;22.412;2023-04-25T01:33:41;19.90;47.70
40868;DHT22;26586;50.708;22.412;2023-04-25T01:36:08;19.90;47.60
40868;DHT22;26586;50.708;22.412;2023-04-25T01:38:35;19.90;47.60
40868;DHT22;26586;50.708;22.412;2023-04-25T01:41:01;19.90;47.60
40868;DHT22;26586;50.708;22.412;2023-04-25T01:43:28;19.80;47.50
40868;DHT22;26586;50.708;22.412;2023-04-25T01:45:54;19.80;47.60
40868;DHT22;26586;50.708;22.412;2023-04-25T01:48:21;19.80;47.60
40868;DHT22;26586;50.708;22.412;2023-04-25T01:50:47;19.80;47.70
40868;DHT22;26586;50.708;22.412;2023-04-25T01:53:14;19.80;47.80
40868;DHT22;26586;50.708;22.412;2023-04-25T01:55:41;19.70;47.70
40868;DHT22;26586;50.708;22.412;2023-04-25T01:58:07;19.70;47.70
40868;DHT22;26586;50.708;22.412;2023-04-25T02:00:36;19.70;47.80
40868;DHT22;26586;50.708;22.412;2023-04-25T02:03:05;19.70;47.70
40868;DHT22;26586;50.708;22.412;2023-04-25T02:05:38;19.70;47.80
40868;DHT22;26586;50.708;22.412;2023-04-25T02:08:08;19.60;47.60
40868;DHT22;26586;50.708;22.412;2023-04-25T02:10:35;19.60;47.70
40868;DHT22;26586;50.708;22.412;2023-04-25T02:13:02;19.60;47.70
40868;DHT22;26586;50.708;22.412;2023-04-25T02:15:28;19.60;47.70
40868;DHT22;26586;50.708;22.412;2023-04-25T02:17:54;19.60;47.80
40868;DHT22;26586;50.708;22.412;2023-04-25T02:20:22;19.60;47.90
40868;DHT22;26586;50.708;22.412;2023-04-25T02:22:49;19.50;48.00
40868;DHT22;26586;50.708;22.412;2023-04-25T02:25:16;19.60;48.20
40868;DHT22;26586;50.708;22.412;2023-04-25T02:27:42;19.60;48.50
40868;DHT22;26586;50.708;22.412;2023-04-25T02:30:09;19.50;48.60
40868;DHT22;26586;50.708;22.412;2023-04-25T02:32:35;19.60;48.90
40868;DHT22;26586;50.708;22.412;2023-04-25T02:35:02;19.50;49.00
40868;DHT22;26586;50.708;22.412;2023-04-25T02:37:33;19.50;49.40
40868;DHT22;26586;50.708;22.412;2023-04-25T02:39:59;19.50;49.60
40868;DHT22;26586;50.708;22.412;2023-04-25T02:42:26;19.50;49.90
40868;DHT22;26586;50.708;22.412;2023-04-25T02:44:52;19.50;50.20
40868;DHT22;26586;50.708;22.412;2023-04-25T02:47:19;19.50;50.30
40868;DHT22;26586;50.708;22.412;2023-04-25T02:49:45;19.50;50.50
40868;DHT22;26586;50.708;22.412;2023-04-25T02:52:12;19.40;50.70
40868;DHT22;26586;50.708;22.412;2023-04-25T02:54:39;19.40;50.80
40868;DHT22;26586;50.708;22.412;2023-04-25T02:57:05;19.40;51.60
40868;DHT22;26586;50.708;22.412;2023-04-25T02:59:32;19.40;51.00
40868;DHT22;26586;50.708;22.412;2023-04-25T03:01:58;19.40;51.30
40868;DHT22;26586;50.708;22.412;2023-04-25T03:04:24;19.40;51.50
40868;DHT22;26586;50.708;22.412;2023-04-25T03:06:51;19.40;51.60
40868;DHT22;26586;50.708;22.412;2023-04-25T03:09:17;19.40;51.80
40868;DHT22;26586;50.708;22.412;2023-04-25T03:11:44;19.40;51.90
40868;DHT22;26586;50.708;22.412;2023-04-25T03:14:12;19.40;52.00
40868;DHT22;26586;50.708;22.412;2023-04-25T03:16:38;19.40;52.20
40868;DHT22;26586;50.708;22.412;2023-04-25T03:19:05;19.30;52.30
40868;DHT22;26586;50.708;22.412;2023-04-25T03:21:32;19.30;52.50
40868;DHT22;26586;50.708;22.412;2023-04-25T03:24:00;19.30;52.60
40868;DHT22;26586;50.708;22.412;2023-04-25T03:26:26;19.30;52.80
40868;DHT22;26586;50.708;22.412;2023-04-25T03:28:52;19.30;53.10
40868;DHT22;26586;50.708;22.412;2023-04-25T03:31:18;19.30;52.90
40868;DHT22;26586;50.708;22.412;2023-04-25T03:33:45;19.30;53.70
40868;DHT22;26586;50.708;22.412;2023-04-25T03:36:11;19.30;53.60
40868;DHT22;26586;50.708;22.412;2023-04-25T03:38:37;19.30;53.90
40868;DHT22;26586;50.708;22.412;2023-04-25T03:41:03;19.30;53.70
40868;DHT22;26586;50.708;22.412;2023-04-25T03:43:30;19.30;54.00
40868;DHT22;26586;50.708;22.412;2023-04-25T03:45:56;19.30;53.90
40868;DHT22;26586;50.708;22.412;2023-04-25T03:48:22;19.20;54.00
40868;DHT22;26586;50.708;22.412;2023-04-25T03:50:50;19.20;54.00
40868;DHT22;26586;50.708;22.412;2023-04-25T03:53:19;19.20;54.00
40868;DHT22;26586;50.708;22.412;2023-04-25T03:55:45;19.20;54.20
40868;DHT22;26586;50.708;22.412;2023-04-25T03:58:13;19.20;55.00
40868;DHT22;26586;50.708;22.412;2023-04-25T04:00:39;19.20;54.60
40868;DHT22;26586;50.708;22.412;2023-04-25T04:03:05;19.20;54.50
40868;DHT22;26586;50.708;22.412;2023-04-25T04:05:31;19.20;55.20
40868;DHT22;26586;50.708;22.412;2023-04-25T04:07:58;19.20;55.00
40868;DHT22;26586;50.708;22.412;2023-04-25T04:10:24;19.20;54.80
40868;DHT22;26586;50.708;22.412;2023-04-25T04:12:52;19.20;54.80
40868;DHT22;26586;50.708;22.412;2023-04-25T04:15:18;19.10;54.90
40868;DHT22;26586;50.708;22.412;2023-04-25T04:17:44;19.10;55.20
40868;DHT22;26586;50.708;22.412;2023-04-25T04:20:11;19.10;55.40
40868;DHT22;26586;50.708;22.412;2023-04-25T04:22:37;19.10;55.40
40868;DHT22;26586;50.708;22.412;2023-04-25T04:25:04;19.10;55.50
40868;DHT22;26586;50.708;22.412;2023-04-25T04:27:32;19.10;55.60
40868;DHT22;26586;50.708;22.412;2023-04-25T04:29:58;19.10;55.70
40868;DHT22;26586;50.708;22.412;2023-04-25T04:32:24;19.10;55.80
40868;DHT22;26586;50.708;22.412;2023-04-25T04:34:51;19.00;55.90
40868;DHT22;26586;50.708;22.412;2023-04-25T04:37:18;19.10;56.00
40868;DHT22;26586;50.708;22.412;2023-04-25T04:39:45;19.00;56.00
40868;DHT22;26586;50.708;22.412;2023-04-25T04:42:11;19.00;56.10
40868;DHT22;26586;50.708;22.412;2023-04-25T04:44:37;19.00;56.00
40868;DHT22;26586;50.708;22.412;2023-04-25T04:47:05;19.00;56.30
40868;DHT22;26586;50.708;22.412;2023-04-25T04:49:32;18.90;56.30
40868;DHT22;26586;50.708;22.412;2023-04-25T04:51:58;18.90;56.20
40868;DHT22;26586;50.708;22.412;2023-04-25T04:54:25;19.00;56.20
40868;DHT22;26586;50.708;22.412;2023-04-25T04:56:53;18.90;56.20
40868;DHT22;26586;50.708;22.412;2023-04-25T04:59:19;18.90;56.30
40868;DHT22;26586;50.708;22.412;2023-04-25T05:01:45;18.90;56.30
40868;DHT22;26586;50.708;22.412;2023-04-25T05:04:12;18.90;56.40
40868;DHT22;26586;50.708;22.412;2023-04-25T05:06:38;18.80;56.60
40868;DHT22;26586;50.708;22.412;2023-04-25T05:09:04;18.80;57.30
40868;DHT22;26586;50.708;22.412;2023-04-25T05:11:31;18.80;56.80
40868;DHT22;26586;50.708;22.412;2023-04-25T05:13:57;18.80;56.90
40868;DHT22;26586;50.708;22.412;2023-04-25T05:16:23;18.80;57.00
40868;DHT22;26586;50.708;22.412;2023-04-25T05:18:50;18.70;57.20
40868;DHT22;26586;50.708;22.412;2023-04-25T05:21:16;18.70;57.20
40868;DHT22;26586;50.708;22.412;2023-04-25T05:23:42;18.70;57.30
40868;DHT22;26586;50.708;22.412;2023-04-25T05:26:09;18.70;57.30
40868;DHT22;26586;50.708;22.412;2023-04-25T05:28:40;18.70;57.50
40868;DHT22;26586;50.708;22.412;2023-04-25T05:31:09;18.70;57.80
40868;DHT22;26586;50.708;22.412;2023-04-25T05:33:35;18.70;57.80
40868;DHT22;26586;50.708;22.412;2023-04-25T05:36:01;18.70;57.80
40868;DHT22;26586;50.708;22.412;2023-04-25T05:38:28;18.60;57.90
40868;DHT22;26586;50.708;22.412;2023-04-25T05:40:54;18.60;57.80
40868;DHT22;26586;50.708;22.412;2023-04-25T05:43:20;18.60;57.90
40868;DHT22;26586;50.708;22.412;2023-04-25T05:45:47;18.60;58.00
40868;DHT22;26586;50.708;22.412;2023-04-25T05:48:13;18.50;58.00
40868;DHT22;26586;50.708;22.412;2023-04-25T05:50:39;18.50;58.10
40868;DHT22;26586;50.708;22.412;2023-04-25T05:53:05;18.50;58.20
40868;DHT22;26586;50.708;22.412;2023-04-25T05:55:32;18.60;58.30
40868;DHT22;26586;50.708;22.412;2023-04-25T05:57:58;18.60;58.40
40868;DHT22;26586;50.708;22.412;2023-04-25T06:00:25;18.50;58.30
40868;DHT22;26586;50.708;22.412;2023-04-25T06:02:51;18.50;58.40
40868;DHT22;26586;50.708;22.412;2023-04-25T06:05:17;18.50;58.60
40868;DHT22;26586;50.708;22.412;2023-04-25T06:07:43;18.50;58.60
40868;DHT22;26586;50.708;22.412;2023-04-25T06:10:09;18.40;58.70
40868;DHT22;26586;50.708;22.412;2023-04-25T06:12:35;18.40;58.70
40868;DHT22;26586;50.708;22.412;2023-04-25T06:15:02;18.40;58.70
40868;DHT22;26586;50.708;22.412;2023-04-25T06:17:28;18.40;58.80
40868;DHT22;26586;50.708;22.412;2023-04-25T06:19:54;18.40;59.50
40868;DHT22;26586;50.708;22.412;2023-04-25T06:22:20;18.40;59.00
40868;DHT22;26586;50.708;22.412;2023-04-25T06:24:47;18.40;59.10
40868;DHT22;26586;50.708;22.412;2023-04-25T06:27:13;18.40;59.30
40868;DHT22;26586;50.708;22.412;2023-04-25T06:29:39;18.40;59.40
40868;DHT22;26586;50.708;22.412;2023-04-25T06:32:05;18.40;59.40
40868;DHT22;26586;50.708;22.412;2023-04-25T06:34:32;18.40;59.50
40868;DHT22;26586;50.708;22.412;2023-04-25T06:36:58;18.30;59.60
40868;DHT22;26586;50.708;22.412;2023-04-25T06:39:24;18.40;60.00
40868;DHT22;26586;50.708;22.412;2023-04-25T06:41:51;18.30;59.80
40868;DHT22;26586;50.708;22.412;2023-04-25T06:44:17;18.30;59.90
40868;DHT22;26586;50.708;22.412;2023-04-25T06:46:43;18.30;60.00
40868;DHT22;26586;50.708;22.412;2023-04-25T06:49:09;18.30;60.00
40868;DHT22;26586;50.708;22.412;2023-04-25T06:51:35;18.30;60.10
40868;DHT22;26586;50.708;22.412;2023-04-25T06:54:02;18.30;60.20
40868;DHT22;26586;50.708;22.412;2023-04-25T06:56:29;18.30;60.30
40868;DHT22;26586;50.708;22.412;2023-04-25T06:58:56;18.30;60.40
40868;DHT22;26586;50.708;22.412;2023-04-25T07:01:23;18.30;60.40
40868;DHT22;26586;50.708;22.412;2023-04-25T07:03:49;18.30;60.40
40868;DHT22;26586;50.708;22.412;2023-04-25T07:06:16;18.30;60.40
40868;DHT22;26586;50.708;22.412;2023-04-25T07:08:42;18.30;60.40
40868;DHT22;26586;50.708;22.412;2023-04-25T07:11:08;18.30;60.60
40868;DHT22;26586;50.708;22.412;2023-04-25T07:13:34;18.30;60.60
40868;DHT22;26586;50.708;22.412;2023-04-25T07:16:01;18.30;60.70
40868;DHT22;26586;50.708;22.412;2023-04-25T07:18:27;18.30;60.70
40868;DHT22;26586;50.708;22.412;2023-04-25T07:20:53;18.30;60.80
40868;DHT22;26586;50.708;22.412;2023-04-25T07:23:20;18.30;60.80
40868;DHT22;26586;50.708;22.412;2023-04-25T07:25:47;18.30;60.80
40868;DHT22;26586;50.708;22.412;2023-04-25T07:28:13;18.30;61.00
40868;DHT22;26586;50.708;22.412;2023-04-25T07:30:40;18.30;61.10
40868;DHT22;26586;50.708;22.412;2023-04-25T07:33:06;18.30;61.10
40868;DHT22;26586;50.708;22.412;2023-04-25T07:35:32;18.20;61.20
40868;DHT22;26586;50.708;22.412;2023-04-25T07:37:59;18.20;61.20
40868;DHT22;26586;50.708;22.412;2023-04-25T07:40:25;18.20;61.20
40868;DHT22;26586;50.708;22.412;2023-04-25T07:42:52;18.20;61.30
40868;DHT22;26586;50.708;22.412;2023-04-25T07:45:21;18.20;61.40
40868;DHT22;26586;50.708;22.412;2023-04-25T07:47:47;18.20;61.40
40868;DHT22;26586;50.708;22.412;2023-04-25T07:50:13;18.20;61.30
40868;DHT22;26586;50.708;22.412;2023-04-25T07:52:40;18.20;61.40
40868;DHT22;26586;50.708;22.412;2023-04-25T07:55:07;18.20;61.50
40868;DHT22;26586;50.708;22.412;2023-04-25T07:57:33;18.20;61.50
40868;DHT22;26586;50.708;22.412;2023-04-25T07:59:59;18.20;61.50
40868;DHT22;26586;50.708;22.412;2023-04-25T08:02:25;18.20;61.50
40868;DHT22;26586;50.708;22.412;2023-04-25T08:04:54;18.20;61.50
40868;DHT22;26586;50.708;22.412;2023-04-25T08:07:20;18.20;61.60
40868;DHT22;26586;50.708;22.412;2023-04-25T08:09:47;18.20;61.80
40868;DHT22;26586;50.708;22.412;2023-04-25T08:12:13;18.20;61.90
40868;DHT22;26586;50.708;22.412;2023-04-25T08:14:43;18.20;62.00
40868;DHT22;26586;50.708;22.412;2023-04-25T08:17:09;18.20;62.00
40868;DHT22;26586;50.708;22.412;2023-04-25T08:19:36;18.20;62.10
40868;DHT22;26586;50.708;22.412;2023-04-25T08:22:02;18.20;62.00
40868;DHT22;26586;50.708;22.412;2023-04-25T08:24:28;18.20;61.90
40868;DHT22;26586;50.708;22.412;2023-04-25T08:26:54;18.20;62.00
40868;DHT22;26586;50.708;22.412;2023-04-25T08:29:20;18.20;62.00
40868;DHT22;26586;50.708;22.412;2023-04-25T08:31:48;18.20;62.10
40868;DHT22;26586;50.708;22.412;2023-04-25T08:34:15;18.20;62.10
40868;DHT22;26586;50.708;22.412;2023-04-25T08:36:41;18.20;62.20
40868;DHT22;26586;50.708;22.412;2023-04-25T08:39:07;18.20;62.30
40868;DHT22;26586;50.708;22.412;2023-04-25T08:41:36;18.20;62.30
40868;DHT22;26586;50.708;22.412;2023-04-25T08:44:03;18.20;62.40
40868;DHT22;26586;50.708;22.412;2023-04-25T08:46:30;18.10;62.50
40868;DHT22;26586;50.708;22.412;2023-04-25T08:49:00;18.20;62.70
40868;DHT22;26586;50.708;22.412;2023-04-25T08:51:27;18.10;62.50
40868;DHT22;26586;50.708;22.412;2023-04-25T08:54:06;18.20;62.60
40868;DHT22;26586;50.708;22.412;2023-04-25T08:56:38;18.20;62.70
40868;DHT22;26586;50.708;22.412;2023-04-25T08:59:12;18.20;62.70
40868;DHT22;26586;50.708;22.412;2023-04-25T09:01:38;18.20;62.70
40868;DHT22;26586;50.708;22.412;2023-04-25T09:04:04;18.20;62.80
40868;DHT22;26586;50.708;22.412;2023-04-25T09:06:31;18.20;62.90
40868;DHT22;26586;50.708;22.412;2023-04-25T09:09:03;18.10;62.90
40868;DHT22;26586;50.708;22.412;2023-04-25T09:11:30;18.20;63.00
40868;DHT22;26586;50.708;22.412;2023-04-25T09:14:16;18.20;63.10
40868;DHT22;26586;50.708;22.412;2023-04-25T09:16:59;18.20;63.30
40868;DHT22;26586;50.708;22.412;2023-04-25T09:19:31;18.20;63.40
40868;DHT22;26586;50.708;22.412;2023-04-25T09:21:59;18.20;63.40
40868;DHT22;26586;50.708;22.412;2023-04-25T09:24:42;18.20;63.50
40868;DHT22;26586;50.708;22.412;2023-04-25T09:27:12;18.20;63.60
40868;DHT22;26586;50.708;22.412;2023-04-25T09:29:40;18.20;63.60
40868;DHT22;26586;50.708;22.412;2023-04-25T09:32:20;18.20;63.70
40868;DHT22;26586;50.708;22.412;2023-04-25T09:34:50;18.20;63.60
40868;DHT22;26586;50.708;22.412;2023-04-25T09:40:00;18.20;63.60
40868;DHT22;26586;50.708;22.412;2023-04-25T09:42:31;18.20;63.60
40868;DHT22;26586;50.708;22.412;2023-04-25T09:45:01;18.20;63.60
40868;DHT22;26586;50.708;22.412;2023-04-25T09:47:30;18.20;67.50
40868;DHT22;26586;50.708;22.412;2023-04-25T09:49:56;18.20;64.90
40868;DHT22;26586;50.708;22.412;2023-04-25T09:52:24;18.20;64.10
40868;DHT22;26586;50.708;22.412;2023-04-25T09:54:51;18.20;63.80
40868;DHT22;26586;50.708;22.412;2023-04-25T09:57:22;18.30;63.60
40868;DHT22;26586;50.708;22.412;2023-04-25T09:59:51;18.30;63.50
40868;DHT22;26586;50.708;22.412;2023-04-25T10:02:25;18.30;63.40
40868;DHT22;26586;50.708;22.412;2023-04-25T10:04:55;18.30;63.40
40868;DHT22;26586;50.708;22.412;2023-04-25T10:07:26;18.20;63.40
40868;DHT22;26586;50.708;22.412;2023-04-25T10:10:04;18.30;63.40
40868;DHT22;26586;50.708;22.412;2023-04-25T10:12:31;18.30;63.40
40868;DHT22;26586;50.708;22.412;2023-04-25T10:14:59;18.30;63.40
40868;DHT22;26586;50.708;22.412;2023-04-25T10:17:27;18.30;63.20
40868;DHT22;26586;50.708;22.412;2023-04-25T10:19:56;18.30;63.80
40868;DHT22;26586;50.708;22.412;2023-04-25T10:22:35;18.30;63.40
40868;DHT22;26586;50.708;22.412;2023-04-25T10:25:02;18.30;63.40
40868;DHT22;26586;50.708;22.412;2023-04-25T10:27:32;18.30;64.40
40868;DHT22;26586;50.708;22.412;2023-04-25T10:32:31;18.30;65.80
40868;DHT22;26586;50.708;22.412;2023-04-25T10:35:23;18.30;65.80
40868;DHT22;26586;50.708;22.412;2023-04-25T10:38:28;18.30;64.40
40868;DHT22;26586;50.708;22.412;2023-04-25T10:41:05;18.30;63.40
40868;DHT22;26586;50.708;22.412;2023-04-25T10:43:41;18.30;64.50
40868;DHT22;26586;50.708;22.412;2023-04-25T10:46:26;18.30;63.40
40868;DHT22;26586;50.708;22.412;2023-04-25T10:48:55;18.30;63.80
40868;DHT22;26586;50.708;22.412;2023-04-25T10:51:36;18.40;65.10
40868;DHT22;26586;50.708;22.412;2023-04-25T10:54:05;18.30;67.60
40868;DHT22;26586;50.708;22.412;2023-04-25T10:56:33;18.30;67.30
40868;DHT22;26586;50.708;22.412;2023-04-25T10:59:19;18.30;64.60
40868;DHT22;26586;50.708;22.412;2023-04-25T11:01:49;18.30;65.10
40868;DHT22;26586;50.708;22.412;2023-04-25T11:04:21;18.40;66.20
40868;DHT22;26586;50.708;22.412;2023-04-25T11:09:42;18.40;64.80
40868;DHT22;26586;50.708;22.412;2023-04-25T11:12:11;18.30;64.10
40868;DHT22;26586;50.708;22.412;2023-04-25T11:14:39;18.40;64.10
40868;DHT22;26586;50.708;22.412;2023-04-25T11:17:06;18.40;63.00
40868;DHT22;26586;50.708;22.412;2023-04-25T11:19:42;18.40;62.20
40868;DHT22;26586;50.708;22.412;2023-04-25T11:22:10;18.40;64.20
40868;DHT22;26586;50.708;22.412;2023-04-25T11:24:36;18.40;64.10
40868;DHT22;26586;50.708;22.412;2023-04-25T11:27:04;18.30;63.50
40868;DHT22;26586;50.708;22.412;2023-04-25T11:29:36;18.40;65.30
40868;DHT22;26586;50.708;22.412;2023-04-25T11:32:03;18.40;65.50
40868;DHT22;26586;50.708;22.412;2023-04-25T11:34:36;18.40;62.60
40868;DHT22;26586;50.708;22.412;2023-04-25T11:37:06;18.30;63.40
40868;DHT22;26586;50.708;22.412;2023-04-25T11:39:32;18.30;64.00
40868;DHT22;26586;50.708;22.412;2023-04-25T11:41:59;18.30;62.50
40868;DHT22;26586;50.708;22.412;2023-04-25T11:44:28;18.30;61.80
40868;DHT22;26586;50.708;22.412;2023-04-25T11:46:55;18.30;61.10
40868;DHT22;26586;50.708;22.412;2023-04-25T11:49:21;18.30;61.30
40868;DHT22;26586;50.708;22.412;2023-04-25T11:51:50;18.30;60.60
40868;DHT22;26586;50.708;22.412;2023-04-25T11:54:17;18.30;62.20
40868;DHT22;26586;50.708;22.412;2023-04-25T11:56:45;18.30;64.00
40868;DHT22;26586;50.708;22.412;2023-04-25T11:59:11;18.30;62.00
40868;DHT22;26586;50.708;22.412;2023-04-25T12:01:40;18.30;62.60
40868;DHT22;26586;50.708;22.412;2023-04-25T12:04:17;18.30;61.50
40868;DHT22;26586;50.708;22.412;2023-04-25T12:06:45;18.30;63.00
40868;DHT22;26586;50.708;22.412;2023-04-25T12:09:14;18.30;63.20
40868;DHT22;26586;50.708;22.412;2023-04-25T12:11:42;18.30;64.10
40868;DHT22;26586;50.708;22.412;2023-04-25T12:14:23;18.20;66.10
40868;DHT22;26586;50.708;22.412;2023-04-25T12:16:57;18.30;68.10
40868;DHT22;26586;50.708;22.412;2023-04-25T12:19:24;18.30;64.70
40868;DHT22;26586;50.708;22.412;2023-04-25T12:21:57;18.30;63.20
40868;DHT22;26586;50.708;22.412;2023-04-25T12:24:24;18.30;63.00
40868;DHT22;26586;50.708;22.412;2023-04-25T12:29:22;18.30;63.40
40868;DHT22;26586;50.708;22.412;2023-04-25T12:31:51;18.20;60.80
40868;DHT22;26586;50.708;22.412;2023-04-25T12:34:18;18.20;60.60
40868;DHT22;26586;50.708;22.412;2023-04-25T12:36:45;18.20;62.50
40868;DHT22;26586;50.708;22.412;2023-04-25T12:39:21;18.20;62.20
40868;DHT22;26586;50.708;22.412;2023-04-25T12:41:49;18.20;61.00
40868;DHT22;26586;50.708;22.412;2023-04-25T12:44:16;18.20;61.00
40868;DHT22;26586;50.708;22.412;2023-04-25T12:46:43;18.20;59.90
40868;DHT22;26586;50.708;22.412;2023-04-25T12:49:11;18.20;59.90
40868;DHT22;26586;50.708;22.412;2023-04-25T12:51:37;18.20;62.20
40868;DHT22;26586;50.708;22.412;2023-04-25T12:54:05;18.20;64.60
40868;DHT22;26586;50.708;22.412;2023-04-25T12:56:33;18.20;65.80
40868;DHT22;26586;50.708;22.412;2023-04-25T12:59:00;18.20;61.40
40868;DHT22;26586;50.708;22.412;2023-04-25T13:01:26;18.20;61.10
40868;DHT22;26586;50.708;22.412;2023-04-25T13:03:53;18.20;61.00
40868;DHT22;26586;50.708;22.412;2023-04-25T13:06:20;18.20;59.90
40868;DHT22;26586;50.708;22.412;2023-04-25T13:08:46;18.20;62.50
40868;DHT22;26586;50.708;22.412;2023-04-25T13:11:13;18.20;63.50
40868;DHT22;26586;50.708;22.412;2023-04-25T13:13:41;18.20;61.90
40868;DHT22;26586;50.708;22.412;2023-04-25T13:16:07;18.20;66.30
40868;DHT22;26586;50.708;22.412;2023-04-25T13:18:34;18.20;64.90
40868;DHT22;26586;50.708;22.412;2023-04-25T13:21:01;18.20;61.40
40868;DHT22;26586;50.708;22.412;2023-04-25T13:23:28;18.20;63.30
40868;DHT22;26586;50.708;22.412;2023-04-25T13:25:55;18.20;66.50
40868;DHT22;26586;50.708;22.412;2023-04-25T13:28:26;18.20;68.10
40868;DHT22;26586;50.708;22.412;2023-04-25T13:30:53;18.20;62.80
40868;DHT22;26586;50.708;22.412;2023-04-25T13:33:20;18.20;66.20
40868;DHT22;26586;50.708;22.412;2023-04-25T13:35:48;18.20;62.60
40868;DHT22;26586;50.708;22.412;2023-04-25T13:38:24;18.20;62.20
40868;DHT22;26586;50.708;22.412;2023-04-25T13:40:52;18.20;61.90
40868;DHT22;26586;50.708;22.412;2023-04-25T13:43:19;18.10;63.60
40868;DHT22;26586;50.708;22.412;2023-04-25T13:45:46;18.10;60.80
40868;DHT22;26586;50.708;22.412;2023-04-25T13:48:12;18.20;59.50
40868;DHT22;26586;50.708;22.412;2023-04-25T13:50:41;18.10;63.50
40868;DHT22;26586;50.708;22.412;2023-04-25T13:53:10;18.10;61.40
40868;DHT22;26586;50.708;22.412;2023-04-25T13:55:36;18.10;60.30
40868;DHT22;26586;50.708;22.412;2023-04-25T13:58:03;18.10;61.20
40868;DHT22;26586;50.708;22.412;2023-04-25T14:00:39;18.10;59.80
40868;DHT22;26586;50.708;22.412;2023-04-25T14:03:08;18.10;58.90
40868;DHT22;26586;50.708;22.412;2023-04-25T14:05:36;18.10;58.20
40868;DHT22;26586;50.708;22.412;2023-04-25T14:08:09;18.10;57.80
40868;DHT22;26586;50.708;22.412;2023-04-25T14:10:36;18.10;59.10
40868;DHT22;26586;50.708;22.412;2023-04-25T14:13:03;18.00;57.80
40868;DHT22;26586;50.708;22.412;2023-04-25T14:15:31;18.00;60.60
40868;DHT22;26586;50.708;22.412;2023-04-25T14:17:58;18.00;60.70
40868;DHT22;26586;50.708;22.412;2023-04-25T14:20:25;18.00;58.00
40868;DHT22;26586;50.708;22.412;2023-04-25T14:22:52;18.00;57.40
40868;DHT22;26586;50.708;22.412;2023-04-25T14:25:21;18.00;57.20
40868;DHT22;26586;50.708;22.412;2023-04-25T14:27:47;18.00;62.40
40868;DHT22;26586;50.708;22.412;2023-04-25T14:30:17;18.00;60.50
40868;DHT22;26586;50.708;22.412;2023-04-25T14:32:43;18.00;59.80
40868;DHT22;26586;50.708;22.412;2023-04-25T14:35:11;18.00;59.40
40868;DHT22;26586;50.708;22.412;2023-04-25T14:37:37;18.00;60.50
40868;DHT22;26586;50.708;22.412;2023-04-25T14:40:06;18.00;59.20
40868;DHT22;26586;50.708;22.412;2023-04-25T14:42:36;18.00;60.50
40868;DHT22;26586;50.708;22.412;2023-04-25T14:45:07;18.00;57.50
40868;DHT22;26586;50.708;22.412;2023-04-25T14:47:37;18.00;59.00
40868;DHT22;26586;50.708;22.412;2023-04-25T14:50:04;18.00;59.60
40868;DHT22;26586;50.708;22.412;2023-04-25T14:52:31;18.00;58.50
40868;DHT22;26586;50.708;22.412;2023-04-25T14:54:57;18.00;58.00
40868;DHT22;26586;50.708;22.412;2023-04-25T14:57:26;17.90;58.20
40868;DHT22;26586;50.708;22.412;2023-04-25T14:59:52;17.90;57.50
40868;DHT22;26586;50.708;22.412;2023-04-25T15:02:18;17.90;57.80
40868;DHT22;26586;50.708;22.412;2023-04-25T15:04:45;17.90;57.20
40868;DHT22;26586;50.708;22.412;2023-04-25T15:07:11;17.90;57.10
40868;DHT22;26586;50.708;22.412;2023-04-25T15:09:37;17.90;58.30
40868;DHT22;26586;50.708;22.412;2023-04-25T15:12:04;17.90;57.00
40868;DHT22;26586;50.708;22.412;2023-04-25T15:14:30;17.90;57.70
40868;DHT22;26586;50.708;22.412;2023-04-25T15:16:56;17.90;57.00
40868;DHT22;26586;50.708;22.412;2023-04-25T15:19:23;17.90;59.00
40868;DHT22;26586;50.708;22.412;2023-04-25T15:21:49;17.80;56.80
40868;DHT22;26586;50.708;22.412;2023-04-25T15:24:15;17.80;57.20
40868;DHT22;26586;50.708;22.412;2023-04-25T15:26:42;17.80;56.60
40868;DHT22;26586;50.708;22.412;2023-04-25T15:29:08;17.80;56.50